Time;durP1;ratioP1;P1;durP2;ratioP2;P2;SDS_P1;SDS_P2;PMS_P1;PMS_P2;Temp;Humidity;BMP_temperature;BMP_pressure;BME280_temperature;BME280_humidity;BME280_pressure;Samples;Min_cycle;Max_cycle;Signal;HPM_P1;HPM_P2
2024/04/14 00:01:33;;;;;;;11.60;8.98;;;;;;;;;;5456335;26;20020;-62
2024/04/14 00:03:58;;;;;;;12.25;10.02;;;;;;;;;;5455015;26;19999;-62
2024/04/14 00:06:24;;;;;;;15.20;10.45;;;;;;;;;;5452483;26;20005;-62
2024/04/14 00:08:52;;;;;;;13.35;9.63;;;;;;;;;;5421251;26;19999;-63
2024/04/14 00:11:18;;;;;;;15.30;9.77;;;;;;;;;;5452714;26;20007;-62
2024/04/14 00:13:45;;;;;;;11.27;9.45;;;;;;;;;;5421187;26;20063;-62
2024/04/14 00:16:12;;;;;;;13.45;9.88;;;;;;;;;;5452604;26;19998;-62
2024/04/14 00:18:40;;;;;;;15.52;10.20;;;;;;;;;;5452798;26;20366;-62
2024/04/14 00:21:05;;;;;;;11.85;10.43;;;;;;;;;;5452542;26;20461;-62
2024/04/14 00:23:30;;;;;;;13.25;9.63;;;;;;;;;;5452446;26;20337;-62
2024/04/14 00:25:56;;;;;;;12.30;9.98;;;;;;;;;;5452740;26;20419;-62
2024/04/14 00:28:23;;;;;;;14.13;10.02;;;;;;;;;;5452514;26;19995;-62
2024/04/14 00:30:49;;;;;;;14.35;10.40;;;;;;;;;;5452231;26;19994;-62
2024/04/14 00:33:14;;;;;;;13.57;10.25;;;;;;;;;;5452820;26;20444;-62
2024/04/14 00:35:40;;;;;;;15.88;10.52;;;;;;;;;;5454951;26;19991;-62
2024/04/14 00:38:06;;;;;;;14.75;9.93;;;;;;;;;;5456737;26;20009;-62
2024/04/14 00:40:31;;;;;;;15.38;10.20;;;;;;;;;;5456414;26;20383;-62
2024/04/14 00:42:57;;;;;;;12.88;10.60;;;;;;;;;;5456336;26;20009;-62
2024/04/14 00:45:23;;;;;;;14.27;11.45;;;;;;;;;;5456305;26;19998;-62
2024/04/14 00:47:49;;;;;;;17.10;11.05;;;;;;;;;;5456217;26;20067;-62
2024/04/14 00:50:15;;;;;;;16.45;10.60;;;;;;;;;;5456201;26;20003;-62
2024/04/14 00:52:40;;;;;;;18.40;11.13;;;;;;;;;;5456207;26;19994;-62
2024/04/14 00:55:06;;;;;;;13.13;10.45;;;;;;;;;;5456159;26;20002;-62
2024/04/14 00:57:32;;;;;;;16.15;10.20;;;;;;;;;;5456127;26;19995;-62
2024/04/14 00:59:59;;;;;;;14.23;10.32;;;;;;;;;;5409841;26;20006;-63
2024/04/14 01:02:25;;;;;;;14.93;10.25;;;;;;;;;;5456108;26;20010;-62
2024/04/14 01:04:50;;;;;;;15.68;10.65;;;;;;;;;;5456081;26;19995;-62
2024/04/14 01:07:16;;;;;;;13.15;10.05;;;;;;;;;;5455955;26;20493;-62
2024/04/14 01:09:41;;;;;;;13.75;10.38;;;;;;;;;;5455841;26;20466;-62
2024/04/14 01:12:07;;;;;;;14.20;9.93;;;;;;;;;;5454764;26;20003;-62
2024/04/14 01:14:32;;;;;;;11.82;10.23;;;;;;;;;;5456066;26;19999;-62
2024/04/14 01:16:58;;;;;;;13.85;9.98;;;;;;;;;;5455842;26;19998;-62
2024/04/14 01:19:23;;;;;;;16.45;10.52;;;;;;;;;;5423929;26;20097;-62
2024/04/14 01:21:49;;;;;;;13.70;9.98;;;;;;;;;;5455378;26;19991;-63
2024/04/14 01:24:15;;;;;;;14.02;10.65;;;;;;;;;;5455758;26;19991;-63
2024/04/14 01:26:40;;;;;;;12.73;10.23;;;;;;;;;;5455913;26;19995;-62
2024/04/14 01:29:06;;;;;;;13.13;9.98;;;;;;;;;;5455624;26;19995;-62
2024/04/14 01:31:31;;;;;;;15.68;10.02;;;;;;;;;;5455601;26;20013;-62
2024/04/14 01:33:57;;;;;;;13.43;10.27;;;;;;;;;;5455606;26;20067;-62
2024/04/14 01:36:22;;;;;;;15.02;10.43;;;;;;;;;;5455387;26;20451;-62
2024/04/14 01:38:48;;;;;;;11.95;9.93;;;;;;;;;;5455597;26;19999;-62
2024/04/14 01:41:13;;;;;;;12.43;10.13;;;;;;;;;;5455755;26;20010;-63
2024/04/14 01:43:38;;;;;;;12.85;9.85;;;;;;;;;;5455458;26;19998;-63
2024/04/14 01:46:04;;;;;;;12.68;10.30;;;;;;;;;;5455436;26;20429;-63
2024/04/14 01:48:29;;;;;;;11.23;9.73;;;;;;;;;;5455276;26;20010;-63
2024/04/14 01:50:55;;;;;;;11.82;9.43;;;;;;;;;;5455316;26;19998;-63
2024/04/14 01:53:20;;;;;;;15.45;10.23;;;;;;;;;;5455285;26;20014;-63
2024/04/14 01:55:47;;;;;;;12.40;9.52;;;;;;;;;;5454953;26;19995;-63
2024/04/14 01:58:12;;;;;;;10.57;9.40;;;;;;;;;;5455326;26;19999;-63
2024/04/14 02:00:37;;;;;;;10.43;9.05;;;;;;;;;;5455154;26;20010;-62
2024/04/14 02:03:03;;;;;;;11.43;9.98;;;;;;;;;;5454973;26;20135;-61
2024/04/14 02:05:28;;;;;;;12.32;9.10;;;;;;;;;;5452103;26;20006;-61
2024/04/14 02:07:54;;;;;;;12.00;9.23;;;;;;;;;;5451159;26;19997;-62
2024/04/14 02:10:21;;;;;;;12.43;9.07;;;;;;;;;;5450894;26;19991;-62
2024/04/14 02:12:47;;;;;;;12.82;9.30;;;;;;;;;;5450988;26;19999;-62
2024/04/14 02:15:12;;;;;;;11.25;9.30;;;;;;;;;;5451083;26;20328;-62
2024/04/14 02:17:38;;;;;;;10.25;9.07;;;;;;;;;;5450953;26;20005;-62
2024/04/14 02:20:03;;;;;;;12.63;9.38;;;;;;;;;;5450937;26;20327;-62
2024/04/14 02:22:29;;;;;;;11.35;8.70;;;;;;;;;;5418969;26;20071;-62
2024/04/14 02:24:54;;;;;;;10.82;8.85;;;;;;;;;;5450830;26;20006;-62
2024/04/14 02:27:19;;;;;;;10.27;8.70;;;;;;;;;;5450732;26;19991;-62
2024/04/14 02:29:45;;;;;;;11.30;9.07;;;;;;;;;;5418994;26;20013;-62
2024/04/14 02:32:10;;;;;;;10.30;9.30;;;;;;;;;;5450689;26;20455;-62
2024/04/14 02:34:36;;;;;;;12.38;8.98;;;;;;;;;;5450703;26;19991;-62
2024/04/14 02:37:01;;;;;;;12.65;9.35;;;;;;;;;;5454044;26;20064;-62
2024/04/14 02:39:26;;;;;;;12.55;9.05;;;;;;;;;;5422947;26;20414;-62
2024/04/14 02:41:52;;;;;;;14.00;9.02;;;;;;;;;;5454556;26;20019;-61
2024/04/14 02:44:17;;;;;;;12.52;9.10;;;;;;;;;;5454618;26;20003;-62
2024/04/14 02:46:43;;;;;;;9.82;8.73;;;;;;;;;;5454556;26;20001;-62
2024/04/14 02:49:08;;;;;;;11.93;8.90;;;;;;;;;;5454447;26;19998;-62
2024/04/14 02:51:34;;;;;;;11.98;9.30;;;;;;;;;;5454483;26;20009;-62
2024/04/14 02:54:00;;;;;;;12.20;9.02;;;;;;;;;;5454336;26;20433;-62
2024/04/14 02:56:25;;;;;;;10.23;8.68;;;;;;;;;;5422537;26;20064;-62
2024/04/14 02:58:51;;;;;;;10.00;8.75;;;;;;;;;;5422495;26;19991;-62
2024/04/14 03:01:18;;;;;;;10.30;8.82;;;;;;;;;;5422648;26;20479;-62
2024/04/14 03:03:45;;;;;;;10.35;9.32;;;;;;;;;;5454228;26;20010;-62
2024/04/14 03:06:11;;;;;;;10.57;9.48;;;;;;;;;;5422364;26;20023;-62
2024/04/14 03:08:36;;;;;;;13.52;9.35;;;;;;;;;;5454055;26;20001;-62
2024/04/14 03:11:02;;;;;;;10.38;8.50;;;;;;;;;;5422336;26;20321;-62
2024/04/14 03:13:29;;;;;;;11.38;9.15;;;;;;;;;;5454102;26;20076;-62
2024/04/14 03:15:54;;;;;;;10.18;9.00;;;;;;;;;;5454048;26;20003;-62
2024/04/14 03:18:20;;;;;;;12.18;8.73;;;;;;;;;;5453950;26;19998;-62
2024/04/14 03:20:55;;;;;;;10.30;8.50;;;;;;;;;;5453979;26;20418;-62
2024/04/14 03:23:21;;;;;;;11.38;8.98;;;;;;;;;;5453913;26;20035;-62
2024/04/14 03:25:46;;;;;;;10.85;8.77;;;;;;;;;;5454106;26;19995;-62
2024/04/14 03:28:11;;;;;;;9.68;8.25;;;;;;;;;;5453699;26;19998;-62
2024/04/14 03:30:37;;;;;;;10.10;9.00;;;;;;;;;;5453634;26;20007;-62
2024/04/14 03:33:02;;;;;;;16.10;9.00;;;;;;;;;;5453728;26;20011;-62
2024/04/14 03:35:28;;;;;;;10.23;8.80;;;;;;;;;;5423123;26;19995;-62
2024/04/14 03:37:53;;;;;;;12.27;10.48;;;;;;;;;;5457346;26;20428;-62
2024/04/14 03:40:18;;;;;;;12.82;11.05;;;;;;;;;;5457227;26;20421;-62
2024/04/14 03:42:45;;;;;;;15.38;12.88;;;;;;;;;;5457202;26;20325;-62
2024/04/14 03:45:10;;;;;;;13.52;12.15;;;;;;;;;;5457151;26;20478;-62
2024/04/14 03:47:36;;;;;;;12.98;10.23;;;;;;;;;;5457161;26;20441;-62
2024/04/14 03:50:02;;;;;;;12.15;9.63;;;;;;;;;;5456738;26;20318;-62
2024/04/14 03:52:28;;;;;;;14.18;11.57;;;;;;;;;;5457055;26;19994;-62
2024/04/14 03:54:53;;;;;;;15.63;11.57;;;;;;;;;;5457077;26;20007;-62
2024/04/14 03:57:19;;;;;;;12.93;11.52;;;;;;;;;;5456725;26;20009;-62
2024/04/14 03:59:44;;;;;;;11.45;9.27;;;;;;;;;;5425122;26;20003;-62
2024/04/14 04:02:10;;;;;;;12.82;9.15;;;;;;;;;;5456926;26;19999;-62
2024/04/14 04:04:37;;;;;;;14.52;11.60;;;;;;;;;;5425121;26;20375;-62
2024/04/14 04:07:02;;;;;;;11.43;8.82;;;;;;;;;;5456874;26;20006;-62
2024/04/14 04:09:27;;;;;;;13.15;9.82;;;;;;;;;;5457013;26;19999;-62
2024/04/14 04:11:53;;;;;;;12.27;9.57;;;;;;;;;;5425241;26;19995;-63
2024/04/14 04:14:18;;;;;;;12.98;9.00;;;;;;;;;;5456718;26;20002;-63
2024/04/14 04:16:45;;;;;;;12.65;9.60;;;;;;;;;;5456672;26;20032;-62
2024/04/14 04:19:11;;;;;;;14.02;9.48;;;;;;;;;;5456489;26;20337;-62
2024/04/14 04:21:37;;;;;;;11.68;8.80;;;;;;;;;;5456931;26;19994;-62
2024/04/14 04:24:03;;;;;;;11.82;9.10;;;;;;;;;;5456656;26;20067;-62
2024/04/14 04:26:28;;;;;;;10.80;9.02;;;;;;;;;;5456076;26;20002;-62
2024/04/14 04:28:53;;;;;;;10.27;8.50;;;;;;;;;;5456525;26;20007;-62
2024/04/14 04:31:19;;;;;;;11.05;8.77;;;;;;;;;;5456547;26;19991;-62
2024/04/14 04:33:44;;;;;;;10.85;8.27;;;;;;;;;;5456553;26;19991;-62
2024/04/14 04:36:11;;;;;;;11.07;8.55;;;;;;;;;;5456331;26;20002;-62
2024/04/14 04:38:37;;;;;;;15.40;10.90;;;;;;;;;;5424784;26;20322;-62
2024/04/14 04:41:03;;;;;;;26.30;15.10;;;;;;;;;;5424619;26;20002;-62
2024/04/14 04:43:29;;;;;;;12.23;8.75;;;;;;;;;;5424560;26;19999;-62
2024/04/14 04:45:54;;;;;;;22.98;14.00;;;;;;;;;;5455412;26;19998;-62
2024/04/14 04:48:19;;;;;;;67.07;34.47;;;;;;;;;;5455182;26;20006;-61
2024/04/14 04:50:45;;;;;;;45.17;24.42;;;;;;;;;;5456120;26;20444;-61
2024/04/14 04:53:11;;;;;;;48.92;25.33;;;;;;;;;;5424793;26;19995;-62
2024/04/14 04:55:36;;;;;;;69.38;36.00;;;;;;;;;;5456187;26;20048;-61
2024/04/14 04:58:03;;;;;;;89.88;46.38;;;;;;;;;;5456111;26;20001;-61
2024/04/14 05:00:28;;;;;;;23.38;14.02;;;;;;;;;;5456110;26;20010;-62
2024/04/14 05:02:53;;;;;;;28.13;16.23;;;;;;;;;;5456083;26;19999;-62
2024/04/14 05:05:19;;;;;;;16.38;11.18;;;;;;;;;;5455977;26;20014;-61
2024/04/14 05:07:45;;;;;;;30.33;17.25;;;;;;;;;;5455853;26;19995;-62
2024/04/14 05:10:10;;;;;;;36.80;19.90;;;;;;;;;;5455880;26;19999;-62
2024/04/14 05:12:36;;;;;;;17.05;11.38;;;;;;;;;;5455957;26;19999;-62
2024/04/14 05:15:04;;;;;;;17.05;10.45;;;;;;;;;;5455869;26;19999;-62
2024/04/14 05:17:33;;;;;;;14.63;9.90;;;;;;;;;;5455601;26;19999;-62
2024/04/14 05:19:58;;;;;;;12.73;9.40;;;;;;;;;;5455805;26;20044;-62
2024/04/14 05:22:23;;;;;;;11.85;9.95;;;;;;;;;;5423786;26;19995;-62
2024/04/14 05:24:49;;;;;;;14.32;9.50;;;;;;;;;;5455815;26;20006;-62
2024/04/14 05:27:15;;;;;;;10.77;7.95;;;;;;;;;;5455758;26;19990;-62
2024/04/14 05:29:45;;;;;;;11.38;8.60;;;;;;;;;;5455874;26;20006;-62
2024/04/14 05:32:11;;;;;;;13.27;8.13;;;;;;;;;;5455745;26;20006;-62
2024/04/14 05:34:36;;;;;;;9.80;8.23;;;;;;;;;;5455469;26;20443;-62
2024/04/14 05:37:02;;;;;;;9.93;8.10;;;;;;;;;;5455925;26;20059;-62
2024/04/14 05:39:27;;;;;;;11.50;8.20;;;;;;;;;;5455521;26;19995;-62
2024/04/14 05:41:52;;;;;;;9.90;8.48;;;;;;;;;;5455513;26;20010;-64
2024/04/14 05:44:18;;;;;;;11.52;8.15;;;;;;;;;;5423785;26;20123;-64
2024/04/14 05:46:43;;;;;;;13.65;9.82;;;;;;;;;;5423693;26;20003;-62
2024/04/14 05:49:09;;;;;;;11.05;8.80;;;;;;;;;;5455409;26;20005;-62
2024/04/14 05:51:35;;;;;;;15.55;9.20;;;;;;;;;;5455408;26;19990;-62
2024/04/14 05:54:00;;;;;;;12.55;8.50;;;;;;;;;;5423695;26;19994;-62
2024/04/14 05:56:26;;;;;;;11.57;9.23;;;;;;;;;;5455332;26;19991;-62
2024/04/14 05:58:51;;;;;;;11.07;8.95;;;;;;;;;;5454574;26;20009;-63
2024/04/14 06:01:17;;;;;;;10.15;8.45;;;;;;;;;;5423414;26;20014;-63
2024/04/14 06:03:42;;;;;;;10.65;8.48;;;;;;;;;;5454873;26;20463;-62
2024/04/14 06:06:08;;;;;;;9.38;7.45;;;;;;;;;;5455396;26;19994;-62
2024/04/14 06:08:34;;;;;;;9.18;6.93;;;;;;;;;;5455033;26;20006;-62
2024/04/14 06:11:00;;;;;;;9.80;7.43;;;;;;;;;;5423593;26;19995;-62
2024/04/14 06:13:25;;;;;;;9.13;7.22;;;;;;;;;;5423375;26;20003;-62
2024/04/14 06:15:51;;;;;;;11.63;7.30;;;;;;;;;;5455011;26;19991;-62
2024/04/14 06:18:16;;;;;;;10.27;6.85;;;;;;;;;;5454942;26;20007;-62
2024/04/14 06:20:42;;;;;;;8.50;6.70;;;;;;;;;;5454932;26;20064;-62
2024/04/14 06:23:07;;;;;;;7.00;6.30;;;;;;;;;;5423658;26;20027;-62
2024/04/14 06:25:33;;;;;;;8.90;5.88;;;;;;;;;;5454501;26;19998;-62
2024/04/14 06:27:58;;;;;;;11.50;5.97;;;;;;;;;;5454876;26;20006;-62
2024/04/14 06:30:23;;;;;;;9.30;6.13;;;;;;;;;;5454732;26;20006;-62
2024/04/14 06:32:49;;;;;;;6.32;5.15;;;;;;;;;;5454759;26;20006;-62
2024/04/14 06:35:15;;;;;;;5.25;4.75;;;;;;;;;;5454847;26;19995;-62
2024/04/14 06:37:40;;;;;;;6.20;5.05;;;;;;;;;;5454670;26;19999;-61
2024/04/14 06:40:06;;;;;;;4.68;4.18;;;;;;;;;;5454735;26;20002;-62
2024/04/14 06:42:31;;;;;;;7.25;3.97;;;;;;;;;;5454567;26;20007;-61
2024/04/14 06:44:57;;;;;;;5.25;4.30;;;;;;;;;;5422295;26;20003;-54
2024/04/14 06:47:22;;;;;;;4.43;4.03;;;;;;;;;;5454529;26;20006;-62
2024/04/14 06:49:48;;;;;;;5.15;4.10;;;;;;;;;;5453941;26;20002;-61
2024/04/14 06:52:13;;;;;;;5.65;4.05;;;;;;;;;;5422203;26;19995;-62
2024/04/14 06:54:39;;;;;;;4.80;4.38;;;;;;;;;;5453699;26;19994;-62
2024/04/14 06:57:04;;;;;;;4.50;3.45;;;;;;;;;;5454047;26;19995;-62
2024/04/14 06:59:30;;;;;;;3.60;3.30;;;;;;;;;;5454626;26;19991;-62
2024/04/14 07:01:55;;;;;;;4.28;3.70;;;;;;;;;;5454038;26;19994;-62
2024/04/14 07:04:21;;;;;;;3.70;3.22;;;;;;;;;;5420975;26;19999;-62
2024/04/14 07:06:46;;;;;;;3.28;2.97;;;;;;;;;;5450880;26;20071;-62
2024/04/14 07:09:11;;;;;;;3.28;3.08;;;;;;;;;;5450480;26;20002;-62
2024/04/14 07:11:37;;;;;;;3.75;3.38;;;;;;;;;;5456586;26;19995;-62
2024/04/14 07:14:02;;;;;;;4.70;2.88;;;;;;;;;;5457664;26;19991;-62
2024/04/14 07:16:27;;;;;;;3.67;3.22;;;;;;;;;;5425765;26;20002;-62
2024/04/14 07:18:53;;;;;;;3.33;3.08;;;;;;;;;;5457337;26;20002;-62
2024/04/14 07:21:18;;;;;;;3.10;2.90;;;;;;;;;;5457275;26;20010;-62
2024/04/14 07:23:44;;;;;;;3.53;3.22;;;;;;;;;;5457196;26;20054;-62
2024/04/14 07:26:09;;;;;;;4.68;2.95;;;;;;;;;;5457258;26;20397;-62
2024/04/14 07:28:37;;;;;;;2.90;2.70;;;;;;;;;;5425259;26;20003;-62
2024/04/14 07:31:02;;;;;;;2.63;2.42;;;;;;;;;;5456847;26;19998;-62
2024/04/14 07:33:28;;;;;;;3.60;2.70;;;;;;;;;;5453474;26;20354;-62
2024/04/14 07:35:53;;;;;;;2.50;2.30;;;;;;;;;;5452967;26;19990;-63
2024/04/14 07:38:18;;;;;;;3.78;3.10;;;;;;;;;;5451670;26;20075;-62
2024/04/14 07:40:44;;;;;;;2.65;2.30;;;;;;;;;;5451084;26;19999;-62
2024/04/14 07:43:09;;;;;;;3.95;2.53;;;;;;;;;;5450833;26;19987;-62
2024/04/14 07:45:34;;;;;;;3.33;2.45;;;;;;;;;;5451173;26;20020;-62
2024/04/14 07:48:00;;;;;;;3.83;2.67;;;;;;;;;;5420270;26;19991;-62
2024/04/14 07:50:25;;;;;;;2.40;2.20;;;;;;;;;;5451677;26;19990;-62
2024/04/14 07:52:51;;;;;;;3.75;2.60;;;;;;;;;;5451577;26;19991;-62
2024/04/14 07:55:19;;;;;;;2.83;1.95;;;;;;;;;;5453345;26;20324;-62
2024/04/14 07:57:44;;;;;;;2.72;2.35;;;;;;;;;;5453174;26;19995;-62
2024/04/14 08:00:10;;;;;;;2.58;2.35;;;;;;;;;;5453001;26;20006;-62
2024/04/14 08:02:39;;;;;;;3.42;2.70;;;;;;;;;;5453020;26;19998;-62
2024/04/14 08:05:04;;;;;;;2.40;2.20;;;;;;;;;;5422551;26;20005;-62
2024/04/14 08:07:29;;;;;;;2.30;2.10;;;;;;;;;;5456855;26;20009;-62
2024/04/14 08:09:55;;;;;;;4.30;2.20;;;;;;;;;;5456799;26;19999;-62
2024/04/14 08:12:21;;;;;;;3.22;2.28;;;;;;;;;;5456804;26;19990;-62
2024/04/14 08:14:47;;;;;;;3.88;2.20;;;;;;;;;;5457145;26;20006;-62
2024/04/14 08:17:12;;;;;;;4.00;2.40;;;;;;;;;;5456785;26;20387;-62
2024/04/14 08:19:38;;;;;;;2.78;2.13;;;;;;;;;;5457040;26;20379;-62
2024/04/14 08:22:03;;;;;;;3.22;2.40;;;;;;;;;;5456332;26;20482;-62
2024/04/14 08:24:29;;;;;;;2.65;2.33;;;;;;;;;;5424800;26;19995;-62
2024/04/14 08:26:55;;;;;;;2.20;2.10;;;;;;;;;;5456646;26;19991;-62
2024/04/14 08:29:21;;;;;;;3.40;2.42;;;;;;;;;;5456515;26;19999;-62
2024/04/14 08:31:46;;;;;;;4.03;2.33;;;;;;;;;;5456593;26;19995;-62
2024/04/14 08:34:12;;;;;;;2.58;2.38;;;;;;;;;;5456469;26;20006;-62
2024/04/14 08:36:37;;;;;;;3.15;2.20;;;;;;;;;;5456326;26;19995;-62
2024/04/14 08:39:03;;;;;;;2.13;1.92;;;;;;;;;;5456806;26;20321;-62
2024/04/14 08:41:31;;;;;;;2.95;2.00;;;;;;;;;;5456727;26;19995;-62
2024/04/14 08:43:59;;;;;;;3.63;1.95;;;;;;;;;;5456491;26;20027;-62
2024/04/14 08:46:25;;;;;;;2.58;1.75;;;;;;;;;;5456677;26;19999;-62
2024/04/14 08:48:51;;;;;;;3.53;1.90;;;;;;;;;;5456532;26;20011;-62
2024/04/14 08:51:16;;;;;;;2.65;2.45;;;;;;;;;;5456643;26;19999;-62
2024/04/14 08:53:42;;;;;;;1.70;1.60;;;;;;;;;;5456566;26;20004;-62
2024/04/14 08:56:08;;;;;;;1.90;1.80;;;;;;;;;;5456452;26;20006;-62
2024/04/14 08:58:34;;;;;;;2.05;1.90;;;;;;;;;;5456196;26;20325;-62
2024/04/14 09:01:01;;;;;;;2.72;2.17;;;;;;;;;;5456278;26;19998;-62
2024/04/14 09:03:29;;;;;;;1.65;1.55;;;;;;;;;;5455979;26;19995;-62
2024/04/14 09:05:56;;;;;;;2.05;1.95;;;;;;;;;;5424338;26;20005;-55
2024/04/14 09:08:23;;;;;;;2.90;2.03;;;;;;;;;;5456040;26;19999;-55
2024/04/14 09:10:48;;;;;;;2.95;2.17;;;;;;;;;;5455856;26;20072;-55
2024/04/14 09:13:13;;;;;;;2.25;1.77;;;;;;;;;;5455963;26;20390;-55
2024/04/14 09:15:40;;;;;;;1.85;1.58;;;;;;;;;;5455922;26;19998;-55
2024/04/14 09:18:06;;;;;;;3.05;2.10;;;;;;;;;;5455917;26;20006;-55
2024/04/14 09:20:32;;;;;;;2.35;1.70;;;;;;;;;;5455874;26;19994;-55
2024/04/14 09:22:58;;;;;;;2.58;1.67;;;;;;;;;;5455928;26;19999;-55
2024/04/14 09:25:25;;;;;;;8.27;1.90;;;;;;;;;;5456136;26;19998;-55
2024/04/14 09:28:00;;;;;;;2.45;1.70;;;;;;;;;;5455750;26;19999;-55
2024/04/14 09:30:25;;;;;;;2.13;1.67;;;;;;;;;;5455658;26;20079;-55
2024/04/14 09:32:52;;;;;;;2.13;1.92;;;;;;;;;;5454504;26;20031;-55
2024/04/14 09:35:18;;;;;;;1.58;1.45;;;;;;;;;;5423554;26;19999;-55
2024/04/14 09:37:44;;;;;;;1.55;1.45;;;;;;;;;;5455888;26;20069;-55
2024/04/14 09:40:11;;;;;;;1.80;1.70;;;;;;;;;;5455485;26;20031;-55
2024/04/14 09:42:37;;;;;;;1.48;1.38;;;;;;;;;;5455552;26;20060;-55
2024/04/14 09:45:03;;;;;;;2.25;1.52;;;;;;;;;;5455616;26;20006;-55
2024/04/14 09:47:29;;;;;;;2.13;1.80;;;;;;;;;;5455385;26;19999;-55
2024/04/14 09:49:54;;;;;;;2.70;1.83;;;;;;;;;;5455472;26;20009;-55
2024/04/14 09:52:21;;;;;;;4.93;1.70;;;;;;;;;;5423385;26;20017;-55
2024/04/14 09:54:47;;;;;;;1.08;1.08;;;;;;;;;;5455400;26;20006;-55
2024/04/14 09:57:12;;;;;;;3.80;1.55;;;;;;;;;;5455288;26;19995;-55
2024/04/14 09:59:38;;;;;;;3.15;1.60;;;;;;;;;;5455210;26;20010;-55
2024/04/14 10:02:05;;;;;;;2.50;1.95;;;;;;;;;;5455358;26;19994;-55
2024/04/14 10:04:31;;;;;;;3.97;1.92;;;;;;;;;;5455385;26;20006;-55
2024/04/14 10:06:57;;;;;;;4.38;1.75;;;;;;;;;;5423415;26;20318;-55
2024/04/14 10:09:24;;;;;;;1.75;1.65;;;;;;;;;;5455167;26;20061;-55
2024/04/14 10:11:50;;;;;;;1.67;1.58;;;;;;;;;;5423606;26;20010;-55
2024/04/14 10:14:15;;;;;;;2.03;1.88;;;;;;;;;;5455392;26;19995;-55
2024/04/14 10:16:52;;;;;;;2.33;1.65;;;;;;;;;;5454885;26;20318;-55
2024/04/14 10:19:18;;;;;;;3.05;2.10;;;;;;;;;;5455333;26;20003;-55
2024/04/14 10:21:43;;;;;;;1.27;1.17;;;;;;;;;;5455001;26;19994;-55
2024/04/14 10:24:11;;;;;;;2.15;2.00;;;;;;;;;;5454920;26;20006;-55
2024/04/14 10:26:36;;;;;;;1.63;1.48;;;;;;;;;;5454966;26;20002;-55
2024/04/14 10:29:08;;;;;;;4.43;2.03;;;;;;;;;;5454675;26;20003;-55
2024/04/14 10:31:51;;;;;;;2.58;2.28;;;;;;;;;;5423265;26;19995;-55
2024/04/14 10:34:23;;;;;;;1.88;1.48;;;;;;;;;;5454799;26;20436;-55
2024/04/14 10:36:55;;;;;;;2.97;2.30;;;;;;;;;;5420388;26;20065;-55
2024/04/14 10:39:21;;;;;;;4.63;2.25;;;;;;;;;;5418765;26;20006;-55
2024/04/14 10:42:00;;;;;;;2.20;1.83;;;;;;;;;;5418737;26;19995;-55
2024/04/14 10:44:25;;;;;;;2.03;1.90;;;;;;;;;;5418610;26;19996;-55
2024/04/14 10:46:51;;;;;;;3.15;2.33;;;;;;;;;;5418596;26;20003;-55
2024/04/14 10:49:26;;;;;;;2.33;2.13;;;;;;;;;;5418583;26;19999;-55
2024/04/14 10:52:08;;;;;;;2.15;1.95;;;;;;;;;;5395896;21;20023;-62
2024/04/14 10:54:33;;;;;;;2.33;2.13;;;;;;;;;;5404831;21;20010;-62
2024/04/14 10:56:58;;;;;;;3.05;2.13;;;;;;;;;;5383082;26;20008;-55
2024/04/14 10:59:25;;;;;;;2.42;1.85;;;;;;;;;;5382945;26;20000;-55
2024/04/14 11:01:52;;;;;;;1.88;1.75;;;;;;;;;;5395634;21;20019;-55
2024/04/14 11:04:17;;;;;;;1.95;1.83;;;;;;;;;;5395723;21;20460;-62
2024/04/14 11:06:44;;;;;;;2.05;1.95;;;;;;;;;;5395568;21;20077;-55
2024/04/14 11:09:16;;;;;;;3.08;1.90;;;;;;;;;;5358066;21;20040;-56
2024/04/14 11:11:41;;;;;;;2.22;2.03;;;;;;;;;;5347966;21;20019;-55
2024/04/14 11:14:07;;;;;;;3.63;1.63;;;;;;;;;;5347885;26;20324;-55
2024/04/14 11:16:32;;;;;;;2.67;1.83;;;;;;;;;;5347796;26;20398;-55
2024/04/14 11:18:58;;;;;;;3.15;2.00;;;;;;;;;;5317381;26;20012;-55
2024/04/14 11:21:26;;;;;;;2.03;1.90;;;;;;;;;;5347717;26;19993;-55
2024/04/14 11:23:52;;;;;;;4.30;2.05;;;;;;;;;;5345845;26;20430;-55
2024/04/14 11:26:20;;;;;;;2.47;1.60;;;;;;;;;;5347587;26;19997;-55
2024/04/14 11:28:47;;;;;;;1.63;1.52;;;;;;;;;;5347465;26;19997;-55
2024/04/14 11:31:13;;;;;;;3.25;1.80;;;;;;;;;;5347552;26;20428;-55
2024/04/14 11:33:41;;;;;;;1.65;1.45;;;;;;;;;;5347530;26;20007;-55
2024/04/14 11:36:09;;;;;;;1.58;1.40;;;;;;;;;;5347428;26;20001;-55
2024/04/14 11:38:35;;;;;;;2.45;1.70;;;;;;;;;;5345842;26;20006;-55
2024/04/14 11:41:01;;;;;;;2.13;1.60;;;;;;;;;;5347023;26;19997;-55
2024/04/14 11:43:26;;;;;;;2.63;1.42;;;;;;;;;;5347319;26;20008;-55
2024/04/14 11:45:53;;;;;;;1.92;1.77;;;;;;;;;;5347229;26;20000;-55
2024/04/14 11:48:24;;;;;;;2.42;1.38;;;;;;;;;;5347295;26;20067;-55
2024/04/14 11:50:49;;;;;;;1.77;1.45;;;;;;;;;;5346976;26;20443;-55
2024/04/14 11:53:14;;;;;;;1.98;1.55;;;;;;;;;;5347228;26;19993;-55
2024/04/14 11:55:40;;;;;;;1.80;1.70;;;;;;;;;;5347520;26;20008;-55
2024/04/14 11:58:05;;;;;;;2.45;1.88;;;;;;;;;;5350546;26;20323;-55
2024/04/14 12:00:31;;;;;;;3.38;1.65;;;;;;;;;;5350521;26;20326;-55
2024/04/14 12:02:56;;;;;;;1.63;1.35;;;;;;;;;;5350494;26;19993;-55
2024/04/14 12:05:22;;;;;;;2.20;1.63;;;;;;;;;;5350483;26;20316;-55
2024/04/14 12:07:47;;;;;;;2.95;1.70;;;;;;;;;;5350194;26;20444;-55
2024/04/14 12:10:13;;;;;;;1.60;1.50;;;;;;;;;;5350358;26;20008;-55
2024/04/14 12:12:38;;;;;;;1.55;1.45;;;;;;;;;;5350071;26;19992;-55
2024/04/14 12:15:04;;;;;;;1.65;1.25;;;;;;;;;;5349009;26;20008;-55
2024/04/14 12:17:30;;;;;;;2.72;1.42;;;;;;;;;;5350461;26;20012;-55
2024/04/14 12:19:56;;;;;;;1.70;1.60;;;;;;;;;;5350560;26;20001;-55
2024/04/14 12:22:21;;;;;;;2.30;1.30;;;;;;;;;;5350595;26;20131;-55
2024/04/14 12:24:47;;;;;;;1.40;1.30;;;;;;;;;;5350868;26;20312;-55
2024/04/14 12:27:12;;;;;;;1.70;1.33;;;;;;;;;;5350307;26;20426;-55
2024/04/14 12:29:38;;;;;;;1.98;1.30;;;;;;;;;;5350168;26;20005;-55
2024/04/14 12:32:04;;;;;;;1.70;1.30;;;;;;;;;;5350462;26;20008;-55
2024/04/14 12:34:29;;;;;;;1.70;1.60;;;;;;;;;;5350459;26;20000;-55
2024/04/14 12:36:54;;;;;;;4.00;1.63;;;;;;;;;;5350424;26;20001;-55
2024/04/14 12:39:20;;;;;;;1.48;1.38;;;;;;;;;;5350099;26;19993;-55
2024/04/14 12:41:45;;;;;;;1.95;1.40;;;;;;;;;;5319793;26;20007;-55
2024/04/14 12:44:11;;;;;;;1.85;1.60;;;;;;;;;;5350303;26;20416;-55
2024/04/14 12:46:36;;;;;;;1.50;1.40;;;;;;;;;;5350327;26;20001;-55
2024/04/14 12:49:02;;;;;;;9.25;1.98;;;;;;;;;;5350048;26;20009;-55
2024/04/14 12:51:28;;;;;;;2.10;1.63;;;;;;;;;;5350215;26;20003;-55
2024/04/14 12:53:53;;;;;;;18.73;2.30;;;;;;;;;;5350191;26;20001;-55
2024/04/14 12:56:18;;;;;;;1.45;1.30;;;;;;;;;;5350155;26;20000;-55
2024/04/14 12:58:44;;;;;;;2.38;1.55;;;;;;;;;;5349414;26;20448;-55
2024/04/14 13:01:09;;;;;;;2.10;1.67;;;;;;;;;;5319362;26;20344;-55
2024/04/14 13:03:34;;;;;;;2.88;1.48;;;;;;;;;;5349722;26;19993;-55
2024/04/14 13:06:00;;;;;;;2.03;1.77;;;;;;;;;;5349671;26;19993;-55
2024/04/14 13:08:25;;;;;;;3.45;1.63;;;;;;;;;;5346476;26;20124;-55
2024/04/14 13:10:50;;;;;;;4.05;1.60;;;;;;;;;;5349355;26;19996;-55
2024/04/14 13:13:16;;;;;;;2.13;1.75;;;;;;;;;;5349912;26;20005;-55
2024/04/14 13:15:44;;;;;;;1.63;1.52;;;;;;;;;;5348111;26;19997;-55
2024/04/14 13:18:10;;;;;;;1.80;1.58;;;;;;;;;;5349842;26;20432;-55
2024/04/14 13:20:42;;;;;;;45.83;3.10;;;;;;;;;;5349357;26;20012;-55
2024/04/14 13:23:07;;;;;;;24.00;2.65;;;;;;;;;;5349739;26;20001;-55
2024/04/14 13:25:33;;;;;;;2.47;1.83;;;;;;;;;;5349652;26;19997;-55
2024/04/14 13:27:58;;;;;;;1.63;1.52;;;;;;;;;;5349692;26;20071;-55
2024/04/14 13:30:25;;;;;;;2.08;1.65;;;;;;;;;;5349496;26;20005;-55
2024/04/14 13:32:51;;;;;;;2.28;1.58;;;;;;;;;;5349547;26;20004;-55
2024/04/14 13:35:16;;;;;;;4.35;1.70;;;;;;;;;;5349625;26;20481;-55
2024/04/14 13:37:43;;;;;;;1.75;1.65;;;;;;;;;;5349528;26;20004;-55
2024/04/14 13:40:09;;;;;;;2.40;1.75;;;;;;;;;;5349568;26;20082;-55
2024/04/14 13:42:34;;;;;;;1.80;1.70;;;;;;;;;;5349448;26;20012;-55
2024/04/14 13:45:00;;;;;;;1.95;1.67;;;;;;;;;;5347287;26;19997;-55
2024/04/14 13:47:25;;;;;;;1.73;1.63;;;;;;;;;;5349424;26;19993;-55
2024/04/14 13:49:51;;;;;;;3.05;1.75;;;;;;;;;;5349510;26;20001;-55
2024/04/14 13:52:25;;;;;;;2.13;1.85;;;;;;;;;;5318922;26;20001;-55
2024/04/14 13:54:53;;;;;;;3.92;1.92;;;;;;;;;;5349353;26;20001;-55
2024/04/14 13:57:18;;;;;;;1.83;1.73;;;;;;;;;;5347666;26;20032;-55
2024/04/14 13:59:44;;;;;;;2.15;1.75;;;;;;;;;;5349272;26;19997;-55
2024/04/14 14:02:09;;;;;;;1.73;1.63;;;;;;;;;;5348960;26;20446;-55
2024/04/14 14:04:34;;;;;;;1.80;1.70;;;;;;;;;;5348907;26;20001;-55
2024/04/14 14:07:01;;;;;;;1.45;1.45;;;;;;;;;;5348565;26;20016;-55
2024/04/14 14:09:27;;;;;;;2.17;1.83;;;;;;;;;;5348776;26;20008;-62
2024/04/14 14:11:52;;;;;;;2.58;1.63;;;;;;;;;;5348110;26;20071;-62
2024/04/14 14:14:17;;;;;;;5.97;2.78;;;;;;;;;;5348773;26;19993;-61
2024/04/14 14:16:43;;;;;;;2.85;1.92;;;;;;;;;;5348712;26;20001;-62
2024/04/14 14:19:08;;;;;;;5.75;2.42;;;;;;;;;;5348202;26;20007;-62
2024/04/14 14:21:34;;;;;;;2.28;2.08;;;;;;;;;;5348637;26;19997;-62
2024/04/14 14:23:59;;;;;;;3.05;1.90;;;;;;;;;;5348620;26;20007;-62
2024/04/14 14:26:24;;;;;;;2.08;1.95;;;;;;;;;;5348627;26;19997;-62
2024/04/14 14:28:50;;;;;;;2.17;1.50;;;;;;;;;;5348491;26;20000;-62